Wick, United Kingdom
Current Conditions -  °F | °C
As of 10:20 AM on Thursday 29 Jan 2015 (Local Time) from EGPC Reporting Station
Rain Showers Rain Showers  
Wind Chill: 21°   Ceiling: Unl
Heat Index: 30°   Visibility: 6mi
Dew Point: 28°   Wind: 10mph
Humidity: 93%   Direction: 300°WNW
Pressure: 28.64"   Gusts: NA
Location:  58.44°N, 3.09°W
Report Text: EGPC 291020Z 30009KT 9999 VCSH SCT016CB M01/M02 Q0970
Loading
Personal Weather Stations






























Interactive Weather Map New forecast layout! Learn more

10-Day Weather Forecast

Advertisements
Track Severe Weather on mobile